Time;durP1;ratioP1;P1;durP2;ratioP2;P2;SDS_P1;SDS_P2;PMS_P1;PMS_P2;Temp;Humidity;BMP_temperature;BMP_pressure;BME280_temperature;BME280_humidity;BME280_pressure;Samples;Min_cycle;Max_cycle;Signal;HPM_P1;HPM_P2
2023/12/22 00:02:25;;;;;;;58.10;7.78;;;;;;;;;;5121863;27;20491;-76
2023/12/22 00:04:51;;;;;;;45.47;6.32;;;;;;;;;;5119947;27;20031;-78
2023/12/22 00:07:20;;;;;;;52.97;6.80;;;;;;;;;;5118719;27;20031;-78
2023/12/22 00:09:45;;;;;;;50.47;6.68;;;;;;;;;;5118675;28;20019;-77
2023/12/22 00:12:13;;;;;;;44.83;6.15;;;;;;;;;;5119980;27;20047;-78
2023/12/22 00:14:40;;;;;;;49.70;6.60;;;;;;;;;;5121155;27;20081;-78
2023/12/22 00:17:06;;;;;;;45.17;6.32;;;;;;;;;;5119100;27;20031;-77
2023/12/22 00:19:32;;;;;;;63.13;7.88;;;;;;;;;;5119707;27;20069;-77
2023/12/22 00:21:58;;;;;;;58.20;6.72;;;;;;;;;;5118906;27;20054;-77
2023/12/22 00:24:24;;;;;;;65.45;8.27;;;;;;;;;;5118596;27;20023;-77
2023/12/22 00:26:50;;;;;;;64.10;7.65;;;;;;;;;;5119865;27;20035;-79
2023/12/22 00:29:16;;;;;;;63.72;7.50;;;;;;;;;;5120074;27;20039;-78
2023/12/22 00:31:42;;;;;;;49.45;7.05;;;;;;;;;;5119486;27;20043;-76
2023/12/22 00:34:08;;;;;;;55.92;7.32;;;;;;;;;;5117534;27;20050;-77
2023/12/22 00:36:34;;;;;;;51.10;6.22;;;;;;;;;;5117274;28;20429;-77
2023/12/22 00:39:00;;;;;;;48.65;6.95;;;;;;;;;;5118531;28;20024;-77
2023/12/22 00:41:26;;;;;;;46.08;6.90;;;;;;;;;;5118695;28;20024;-77
2023/12/22 00:43:52;;;;;;;44.42;5.30;;;;;;;;;;5115402;28;20023;-76
2023/12/22 00:46:19;;;;;;;40.05;5.13;;;;;;;;;;5115938;28;20065;-77
2023/12/22 00:48:45;;;;;;;41.22;5.93;;;;;;;;;;5115506;28;20490;-77
2023/12/22 00:51:11;;;;;;;39.83;6.28;;;;;;;;;;5115397;28;20039;-77
2023/12/22 00:53:37;;;;;;;54.70;6.85;;;;;;;;;;5115877;28;20440;-77
2023/12/22 00:56:03;;;;;;;69.22;7.88;;;;;;;;;;5114838;28;20023;-77
2023/12/22 00:58:30;;;;;;;66.75;7.28;;;;;;;;;;5114946;28;20084;-77
2023/12/22 01:00:56;;;;;;;61.83;8.70;;;;;;;;;;5113205;28;20380;-77
2023/12/22 01:03:22;;;;;;;58.83;8.10;;;;;;;;;;5097192;28;20544;-76
2023/12/22 01:05:48;;;;;;;62.00;7.95;;;;;;;;;;5102490;28;20341;-75
2023/12/22 01:08:14;;;;;;;59.70;7.72;;;;;;;;;;5094314;28;20032;-76
2023/12/22 01:10:40;;;;;;;58.97;7.78;;;;;;;;;;5094109;28;20187;-76
2023/12/22 01:13:06;;;;;;;59.47;7.40;;;;;;;;;;5094098;28;20021;-75
2023/12/22 01:15:32;;;;;;;59.00;6.95;;;;;;;;;;5094371;28;20052;-75
2023/12/22 01:17:58;;;;;;;39.97;6.63;;;;;;;;;;5095692;28;20027;-79
2023/12/22 01:20:24;;;;;;;60.70;7.35;;;;;;;;;;5096179;28;20048;-77
2023/12/22 01:22:50;;;;;;;40.13;5.90;;;;;;;;;;5093937;28;20468;-76
2023/12/22 01:25:16;;;;;;;39.75;5.75;;;;;;;;;;5094112;28;20066;-77
2023/12/22 01:27:42;;;;;;;35.20;4.65;;;;;;;;;;5093899;28;20048;-75
2023/12/22 01:30:08;;;;;;;28.90;4.57;;;;;;;;;;5093618;28;20447;-77
2023/12/22 01:32:36;;;;;;;37.65;4.82;;;;;;;;;;5093682;28;20020;-76
2023/12/22 01:35:09;;;;;;;32.22;4.45;;;;;;;;;;5094384;28;20020;-77
2023/12/22 01:37:35;;;;;;;22.90;2.95;;;;;;;;;;5093733;28;20025;-77
2023/12/22 01:40:01;;;;;;;20.23;3.17;;;;;;;;;;5093860;28;20027;-79
2023/12/22 01:42:27;;;;;;;26.00;3.08;;;;;;;;;;5093758;28;20387;-76
2023/12/22 01:44:53;;;;;;;10.52;2.17;;;;;;;;;;5093216;28;20064;-77
2023/12/22 01:47:19;;;;;;;14.40;2.47;;;;;;;;;;5093738;28;20028;-78
2023/12/22 01:49:45;;;;;;;18.33;2.17;;;;;;;;;;5093854;28;20031;-78
2023/12/22 01:52:11;;;;;;;14.02;2.55;;;;;;;;;;5093633;28;20031;-78
2023/12/22 01:54:37;;;;;;;19.52;2.95;;;;;;;;;;5093748;28;20441;-77
2023/12/22 01:57:04;;;;;;;12.98;2.22;;;;;;;;;;5094296;28;20023;-77
2023/12/22 01:59:34;;;;;;;17.38;2.38;;;;;;;;;;5093585;28;20038;-75
2023/12/22 02:02:00;;;;;;;10.18;2.03;;;;;;;;;;5106655;28;20339;-77
2023/12/22 02:04:27;;;;;;;17.35;2.70;;;;;;;;;;5112951;28;20020;-75
2023/12/22 02:06:53;;;;;;;11.52;1.92;;;;;;;;;;5092794;28;20032;-76
2023/12/22 02:09:19;;;;;;;18.85;2.67;;;;;;;;;;5093127;28;20059;-77
2023/12/22 02:11:45;;;;;;;18.33;2.72;;;;;;;;;;5106072;28;20034;-77
2023/12/22 02:14:11;;;;;;;19.15;2.63;;;;;;;;;;5111479;28;20031;-77
2023/12/22 02:16:45;;;;;;;17.70;2.95;;;;;;;;;;5095341;28;20471;-79
2023/12/22 02:19:26;;;;;;;20.70;2.42;;;;;;;;;;5091542;28;20028;-77
2023/12/22 02:22:05;;;;;;;15.10;2.63;;;;;;;;;;5112965;28;20513;-74
2023/12/22 02:24:31;;;;;;;27.20;4.10;;;;;;;;;;5112747;28;20030;-75
2023/12/22 02:27:04;;;;;;;26.17;2.92;;;;;;;;;;5112909;28;20383;-77
2023/12/22 02:29:34;;;;;;;23.95;3.80;;;;;;;;;;5096222;28;20035;-75
2023/12/22 02:32:01;;;;;;;33.53;4.65;;;;;;;;;;5092114;28;20530;-76
2023/12/22 02:34:28;;;;;;;22.85;3.20;;;;;;;;;;5092804;28;20031;-75
2023/12/22 02:36:54;;;;;;;26.52;3.33;;;;;;;;;;5092679;28;20379;-76
2023/12/22 02:39:21;;;;;;;26.67;3.75;;;;;;;;;;5091962;28;20028;-75
2023/12/22 02:41:47;;;;;;;30.02;3.53;;;;;;;;;;5109521;28;20065;-77
2023/12/22 02:44:13;;;;;;;33.80;3.97;;;;;;;;;;5112463;28;20012;-77
2023/12/22 02:46:40;;;;;;;30.95;3.28;;;;;;;;;;5112243;28;20483;-75
2023/12/22 02:49:06;;;;;;;36.80;3.65;;;;;;;;;;5112517;28;20031;-77
2023/12/22 02:51:32;;;;;;;28.67;3.35;;;;;;;;;;5111584;28;20081;-76
2023/12/22 02:53:58;;;;;;;23.15;3.17;;;;;;;;;;5112660;28;20058;-75
2023/12/22 02:56:24;;;;;;;17.52;2.60;;;;;;;;;;5112751;28;20027;-77
2023/12/22 02:58:50;;;;;;;20.65;2.40;;;;;;;;;;5112102;28;20501;-75
2023/12/22 03:01:16;;;;;;;15.27;2.20;;;;;;;;;;5113140;28;20024;-75
2023/12/22 03:03:42;;;;;;;14.27;1.85;;;;;;;;;;5112332;28;20356;-74
2023/12/22 03:06:08;;;;;;;11.95;1.73;;;;;;;;;;5112527;28;20035;-76
2023/12/22 03:08:34;;;;;;;15.23;1.95;;;;;;;;;;5112858;28;20063;-77
2023/12/22 03:11:00;;;;;;;17.15;2.40;;;;;;;;;;5112044;28;20032;-76
2023/12/22 03:13:26;;;;;;;9.13;1.60;;;;;;;;;;5112809;28;20055;-77
2023/12/22 03:15:52;;;;;;;12.13;1.85;;;;;;;;;;5112537;28;20466;-77
2023/12/22 03:18:18;;;;;;;20.17;1.80;;;;;;;;;;5112473;28;20023;-78
2023/12/22 03:20:44;;;;;;;14.05;2.05;;;;;;;;;;5114530;28;20030;-77
2023/12/22 03:23:10;;;;;;;12.40;1.90;;;;;;;;;;5112624;28;20387;-75
2023/12/22 03:25:36;;;;;;;13.10;1.75;;;;;;;;;;5112294;28;20068;-76
2023/12/22 03:28:02;;;;;;;18.02;1.73;;;;;;;;;;5112295;28;20028;-77
2023/12/22 03:30:28;;;;;;;12.30;2.13;;;;;;;;;;5112088;28;20107;-76
2023/12/22 03:32:54;;;;;;;11.52;1.55;;;;;;;;;;5112461;28;20067;-76
2023/12/22 03:35:20;;;;;;;9.10;1.60;;;;;;;;;;5112810;28;20019;-77
2023/12/22 03:37:46;;;;;;;15.00;1.70;;;;;;;;;;5112919;28;20390;-77
2023/12/22 03:40:12;;;;;;;11.55;1.33;;;;;;;;;;5112028;28;20023;-75
2023/12/22 03:42:38;;;;;;;12.35;1.65;;;;;;;;;;5111974;28;20045;-75
2023/12/22 03:45:04;;;;;;;11.98;1.88;;;;;;;;;;5112214;28;20027;-75
2023/12/22 03:47:30;;;;;;;18.25;2.50;;;;;;;;;;5112273;28;20035;-75
2023/12/22 03:49:56;;;;;;;14.00;2.22;;;;;;;;;;5111916;28;20020;-78
2023/12/22 03:52:22;;;;;;;22.10;2.00;;;;;;;;;;5111908;28;20031;-75
2023/12/22 03:54:48;;;;;;;16.85;2.67;;;;;;;;;;5109074;28;20055;-77
2023/12/22 03:57:14;;;;;;;21.50;2.63;;;;;;;;;;5112043;28;20031;-77
2023/12/22 03:59:40;;;;;;;20.48;2.80;;;;;;;;;;5097750;28;20028;-78
2023/12/22 04:02:05;;;;;;;26.30;3.13;;;;;;;;;;5098353;28;20056;-77
2023/12/22 04:04:32;;;;;;;34.13;3.65;;;;;;;;;;5108547;28;20024;-76
2023/12/22 04:06:57;;;;;;;33.35;3.97;;;;;;;;;;5103031;28;20081;-76
2023/12/22 04:09:23;;;;;;;37.67;4.35;;;;;;;;;;5110498;28;20483;-76
2023/12/22 04:11:49;;;;;;;36.83;4.72;;;;;;;;;;5098758;28;20031;-75
2023/12/22 04:14:16;;;;;;;37.28;4.70;;;;;;;;;;5116063;28;20467;-77
2023/12/22 04:16:42;;;;;;;36.00;3.83;;;;;;;;;;5109767;28;20021;-78
2023/12/22 04:19:08;;;;;;;39.42;4.63;;;;;;;;;;5114153;28;20364;-76
2023/12/22 04:21:34;;;;;;;25.83;3.67;;;;;;;;;;5115502;28;20070;-77
2023/12/22 04:24:00;;;;;;;28.95;4.05;;;;;;;;;;5115670;28;20028;-79
2023/12/22 04:26:26;;;;;;;36.92;3.88;;;;;;;;;;5113757;28;20019;-79
2023/12/22 04:28:52;;;;;;;32.22;3.63;;;;;;;;;;5108833;28;20088;-77
2023/12/22 04:31:18;;;;;;;37.22;4.05;;;;;;;;;;5098384;28;20028;-77
2023/12/22 04:33:44;;;;;;;34.75;4.47;;;;;;;;;;5104546;28;20124;-78
2023/12/22 04:36:10;;;;;;;28.95;3.50;;;;;;;;;;5113139;28;20107;-79
2023/12/22 04:38:36;;;;;;;35.00;3.72;;;;;;;;;;5112093;28;20797;-78
2023/12/22 04:41:02;;;;;;;29.55;4.32;;;;;;;;;;5108498;28;20206;-76
2023/12/22 04:43:28;;;;;;;26.42;3.47;;;;;;;;;;5112363;28;20008;-76
2023/12/22 04:45:54;;;;;;;31.52;3.13;;;;;;;;;;5133346;28;20035;-78
2023/12/22 04:48:20;;;;;;;42.08;4.72;;;;;;;;;;5105492;28;20028;-78
2023/12/22 04:50:46;;;;;;;30.45;4.22;;;;;;;;;;5101584;28;20502;-79
2023/12/22 04:53:12;;;;;;;38.80;4.10;;;;;;;;;;5102483;28;20060;-79
2023/12/22 04:55:38;;;;;;;43.25;4.57;;;;;;;;;;5120354;28;20031;-79
2023/12/22 04:58:04;;;;;;;44.25;4.68;;;;;;;;;;5103325;28;20031;-79
2023/12/22 05:00:30;;;;;;;30.30;4.25;;;;;;;;;;5101901;28;20024;-78
2023/12/22 05:02:56;;;;;;;38.05;4.75;;;;;;;;;;5104003;28;20475;-76
2023/12/22 05:05:22;;;;;;;32.40;4.47;;;;;;;;;;5115085;28;20020;-76
2023/12/22 05:07:48;;;;;;;27.70;3.42;;;;;;;;;;5114704;28;20081;-76
2023/12/22 05:10:14;;;;;;;28.35;3.85;;;;;;;;;;5114220;28;20050;-77
2023/12/22 05:12:40;;;;;;;23.85;4.10;;;;;;;;;;5114271;28;20027;-77
2023/12/22 05:15:06;;;;;;;27.38;3.70;;;;;;;;;;5114937;27;20015;-76
2023/12/22 05:17:32;;;;;;;27.15;4.07;;;;;;;;;;5114522;28;20019;-75
2023/12/22 05:19:58;;;;;;;27.65;3.90;;;;;;;;;;5113731;28;20024;-74
2023/12/22 05:22:25;;;;;;;26.67;3.35;;;;;;;;;;5113472;28;20035;-74
2023/12/22 05:24:51;;;;;;;26.10;3.00;;;;;;;;;;5114616;28;20031;-75
2023/12/22 05:27:17;;;;;;;33.83;4.22;;;;;;;;;;5115154;28;20487;-78
2023/12/22 05:29:43;;;;;;;35.28;4.68;;;;;;;;;;5117243;28;20024;-78
2023/12/22 05:32:09;;;;;;;37.83;3.75;;;;;;;;;;5117684;28;20130;-80
2023/12/22 05:34:36;;;;;;;32.00;3.67;;;;;;;;;;5113097;28;20027;-79
2023/12/22 05:37:02;;;;;;;32.50;4.35;;;;;;;;;;5116078;28;20023;-78
2023/12/22 05:39:28;;;;;;;39.47;4.60;;;;;;;;;;5109426;28;20093;-76
2023/12/22 05:41:54;;;;;;;28.50;3.60;;;;;;;;;;5101842;28;20047;-77
2023/12/22 05:44:20;;;;;;;28.65;3.78;;;;;;;;;;5113364;28;20049;-77
2023/12/22 05:46:46;;;;;;;26.27;3.45;;;;;;;;;;5102224;28;20016;-77
2023/12/22 05:49:12;;;;;;;29.05;4.25;;;;;;;;;;5110497;28;20103;-77
2023/12/22 05:51:38;;;;;;;26.90;3.20;;;;;;;;;;5100219;28;20024;-77
2023/12/22 05:54:05;;;;;;;38.45;3.72;;;;;;;;;;5103246;28;20031;-76
2023/12/22 05:56:31;;;;;;;23.88;3.95;;;;;;;;;;5101431;28;20487;-76
2023/12/22 05:58:57;;;;;;;28.10;3.97;;;;;;;;;;5092963;28;20028;-75
2023/12/22 06:01:23;;;;;;;20.13;2.97;;;;;;;;;;5093372;28;20479;-75
2023/12/22 06:03:49;;;;;;;27.55;3.83;;;;;;;;;;5092652;28;20024;-75
2023/12/22 06:06:15;;;;;;;17.48;2.40;;;;;;;;;;5092708;28;20035;-75
2023/12/22 06:08:41;;;;;;;20.98;2.55;;;;;;;;;;5092856;28;20030;-75
2023/12/22 06:11:07;;;;;;;21.60;2.67;;;;;;;;;;5092464;28;20051;-75
2023/12/22 06:13:33;;;;;;;25.67;3.58;;;;;;;;;;5092682;28;20471;-75
2023/12/22 06:15:59;;;;;;;31.85;3.55;;;;;;;;;;5092712;28;20030;-76
2023/12/22 06:18:25;;;;;;;32.05;5.32;;;;;;;;;;5091395;28;20052;-75
2023/12/22 06:20:52;;;;;;;30.00;3.75;;;;;;;;;;5092623;28;20062;-76
2023/12/22 06:23:18;;;;;;;29.10;3.05;;;;;;;;;;5093422;28;20027;-76
2023/12/22 06:25:46;;;;;;;29.40;3.55;;;;;;;;;;5093418;28;20388;-77
2023/12/22 06:28:12;;;;;;;30.45;4.20;;;;;;;;;;5093417;28;20432;-76
2023/12/22 06:30:38;;;;;;;38.22;5.10;;;;;;;;;;5097156;28;20067;-78
2023/12/22 06:33:04;;;;;;;32.63;4.13;;;;;;;;;;5102991;28;20038;-78
2023/12/22 06:35:31;;;;;;;33.70;4.50;;;;;;;;;;5090913;28;20028;-77
2023/12/22 06:38:01;;;;;;;32.80;5.40;;;;;;;;;;5095403;28;20047;-78
2023/12/22 06:40:27;;;;;;;38.25;5.05;;;;;;;;;;5107134;28;20121;-77
2023/12/22 06:42:53;;;;;;;53.25;13.13;;;;;;;;;;5112639;28;20106;-78
2023/12/22 06:45:19;;;;;;;35.05;4.63;;;;;;;;;;5105900;28;20062;-78
2023/12/22 06:47:45;;;;;;;31.77;4.45;;;;;;;;;;5108101;28;20038;-77
2023/12/22 06:50:11;;;;;;;39.20;5.93;;;;;;;;;;5111673;28;20031;-78
2023/12/22 06:52:37;;;;;;;55.55;5.43;;;;;;;;;;5096279;28;20433;-78
2023/12/22 06:55:03;;;;;;;40.83;5.13;;;;;;;;;;5104800;28;20020;-75
2023/12/22 06:57:29;;;;;;;57.22;6.70;;;;;;;;;;5100327;28;20019;-78
2023/12/22 06:59:55;;;;;;;51.40;6.32;;;;;;;;;;5096953;28;20032;-76
2023/12/22 07:02:21;;;;;;;55.35;7.05;;;;;;;;;;5093600;28;20181;-75
2023/12/22 07:05:04;;;;;;;63.42;6.45;;;;;;;;;;5101636;28;20020;-76
2023/12/22 07:07:30;;;;;;;43.25;6.10;;;;;;;;;;5098825;28;20020;-77
2023/12/22 07:09:56;;;;;;;68.78;7.82;;;;;;;;;;5110808;28;20019;-79
2023/12/22 07:12:22;;;;;;;60.10;7.05;;;;;;;;;;5106556;28;20053;-78
2023/12/22 07:14:48;;;;;;;69.10;7.03;;;;;;;;;;5107241;28;20023;-76
2023/12/22 07:17:14;;;;;;;57.80;7.28;;;;;;;;;;5114807;28;20474;-77
2023/12/22 07:19:40;;;;;;;59.83;7.88;;;;;;;;;;5114566;28;20063;-76
2023/12/22 07:22:06;;;;;;;63.05;7.43;;;;;;;;;;5114765;28;20429;-76
2023/12/22 07:24:32;;;;;;;49.15;7.03;;;;;;;;;;5114747;28;20360;-77
2023/12/22 07:26:58;;;;;;;52.55;6.93;;;;;;;;;;5112971;28;20034;-75
2023/12/22 07:29:24;;;;;;;58.72;7.63;;;;;;;;;;5118162;28;20034;-75
2023/12/22 07:31:50;;;;;;;43.92;6.03;;;;;;;;;;5115987;28;20430;-76
2023/12/22 07:34:18;;;;;;;59.03;7.40;;;;;;;;;;5114027;28;20023;-76
2023/12/22 07:36:44;;;;;;;46.10;7.45;;;;;;;;;;5115279;28;20016;-76
2023/12/22 07:39:10;;;;;;;56.13;7.78;;;;;;;;;;5113888;28;20422;-77
2023/12/22 07:41:36;;;;;;;55.33;8.35;;;;;;;;;;5113342;28;20024;-75
2023/12/22 07:44:02;;;;;;;55.72;6.85;;;;;;;;;;5115027;28;20027;-76
2023/12/22 07:46:28;;;;;;;58.97;6.60;;;;;;;;;;5116396;28;20077;-76
2023/12/22 07:48:54;;;;;;;58.58;6.68;;;;;;;;;;5115913;28;20077;-75
2023/12/22 07:51:21;;;;;;;70.70;8.77;;;;;;;;;;5116626;28;20032;-76
2023/12/22 07:53:47;;;;;;;56.92;6.32;;;;;;;;;;5117178;28;20090;-75
2023/12/22 07:56:13;;;;;;;39.30;5.50;;;;;;;;;;5118218;28;20096;-76
2023/12/22 07:58:39;;;;;;;42.95;6.20;;;;;;;;;;5117832;28;20075;-76
2023/12/22 08:01:08;;;;;;;34.47;5.00;;;;;;;;;;5114740;28;20027;-76
2023/12/22 08:03:34;;;;;;;40.72;4.47;;;;;;;;;;5099028;28;20432;-76
2023/12/22 08:06:00;;;;;;;37.63;4.82;;;;;;;;;;5095043;28;20024;-76
2023/12/22 08:08:26;;;;;;;37.20;4.63;;;;;;;;;;5094931;28;20028;-76
2023/12/22 08:10:52;;;;;;;36.38;5.00;;;;;;;;;;5097016;28;20020;-76
2023/12/22 08:13:18;;;;;;;39.53;4.22;;;;;;;;;;5099472;28;20479;-75
2023/12/22 08:15:44;;;;;;;26.02;4.15;;;;;;;;;;5119717;28;20024;-75
2023/12/22 08:18:11;;;;;;;32.25;4.38;;;;;;;;;;5119203;28;20080;-75
2023/12/22 08:20:37;;;;;;;33.50;4.40;;;;;;;;;;5110667;28;20024;-77
2023/12/22 08:23:03;;;;;;;32.90;4.35;;;;;;;;;;5094519;28;20028;-76
2023/12/22 08:25:29;;;;;;;34.97;3.78;;;;;;;;;;5094654;28;20073;-75
2023/12/22 08:27:55;;;;;;;40.42;5.47;;;;;;;;;;5094673;28;20029;-76
2023/12/22 08:30:21;;;;;;;37.05;4.65;;;;;;;;;;5095281;28;20562;-77
2023/12/22 08:32:47;;;;;;;43.22;5.85;;;;;;;;;;5094370;28;20097;-75
2023/12/22 08:35:13;;;;;;;46.25;5.53;;;;;;;;;;5095133;28;20475;-78
2023/12/22 08:37:39;;;;;;;54.08;5.72;;;;;;;;;;5094695;28;20029;-75
2023/12/22 08:40:06;;;;;;;37.55;6.03;;;;;;;;;;5093780;28;20023;-76
2023/12/22 08:42:32;;;;;;;45.33;6.00;;;;;;;;;;5094526;28;20035;-77
2023/12/22 08:44:58;;;;;;;41.90;4.88;;;;;;;;;;5094827;28;20020;-76
2023/12/22 08:47:25;;;;;;;38.40;5.13;;;;;;;;;;5094759;28;20024;-74
2023/12/22 08:49:51;;;;;;;40.33;5.80;;;;;;;;;;5094895;28;20433;-76
2023/12/22 08:52:17;;;;;;;30.40;4.35;;;;;;;;;;5093103;28;20111;-76
2023/12/22 08:54:43;;;;;;;28.58;4.07;;;;;;;;;;5111667;28;20382;-76
2023/12/22 08:57:09;;;;;;;21.70;3.88;;;;;;;;;;5106013;27;20019;-76
2023/12/22 08:59:35;;;;;;;22.02;3.78;;;;;;;;;;5094141;28;20042;-77
2023/12/22 09:02:01;;;;;;;21.25;2.95;;;;;;;;;;5092893;28;20020;-76
2023/12/22 09:04:27;;;;;;;28.05;3.67;;;;;;;;;;5093936;28;20024;-78
2023/12/22 09:06:53;;;;;;;29.92;3.47;;;;;;;;;;5094042;28;20448;-76
2023/12/22 09:09:19;;;;;;;22.85;2.95;;;;;;;;;;5094428;28;20020;-77
2023/12/22 09:11:45;;;;;;;24.70;3.25;;;;;;;;;;5095027;28;20598;-77
2023/12/22 09:14:11;;;;;;;29.50;3.55;;;;;;;;;;5094937;28;20105;-76
2023/12/22 09:16:37;;;;;;;30.85;4.53;;;;;;;;;;5095178;28;20031;-78
2023/12/22 09:19:03;;;;;;;34.80;3.42;;;;;;;;;;5092711;28;20034;-77
2023/12/22 09:21:29;;;;;;;24.88;3.42;;;;;;;;;;5093443;28;20024;-77
2023/12/22 09:23:55;;;;;;;23.00;4.05;;;;;;;;;;5094854;28;20031;-78
2023/12/22 09:26:21;;;;;;;38.45;3.88;;;;;;;;;;5094553;28;20408;-78
2023/12/22 09:28:47;;;;;;;25.67;3.25;;;;;;;;;;5094527;28;20036;-78
2023/12/22 09:31:14;;;;;;;32.55;4.30;;;;;;;;;;5094950;28;20107;-76
2023/12/22 09:33:41;;;;;;;30.98;3.88;;;;;;;;;;5093976;28;20118;-78
2023/12/22 09:36:07;;;;;;;25.85;3.75;;;;;;;;;;5094013;28;20024;-77
2023/12/22 09:38:33;;;;;;;29.52;4.40;;;;;;;;;;5094104;28;20030;-78
2023/12/22 09:40:59;;;;;;;27.65;3.65;;;;;;;;;;5093205;28;20020;-75
2023/12/22 09:43:25;;;;;;;31.23;4.07;;;;;;;;;;5093776;28;20031;-77
2023/12/22 09:45:51;;;;;;;25.48;3.58;;;;;;;;;;5094073;28;20047;-75
2023/12/22 09:48:20;;;;;;;38.58;4.50;;;;;;;;;;5094508;28;20540;-75
2023/12/22 09:50:46;;;;;;;31.05;3.88;;;;;;;;;;5096705;28;20032;-75
2023/12/22 09:53:16;;;;;;;40.95;4.85;;;;;;;;;;5095373;28;20424;-75
2023/12/22 09:55:45;;;;;;;31.83;4.22;;;;;;;;;;5093845;28;20039;-75
2023/12/22 09:58:12;;;;;;;32.33;5.40;;;;;;;;;;5095799;28;20031;-75
2023/12/22 10:00:38;;;;;;;38.22;5.18;;;;;;;;;;5095560;28;20039;-77
2023/12/22 10:03:07;;;;;;;43.65;5.03;;;;;;;;;;5095531;28;20395;-75
2023/12/22 10:05:36;;;;;;;31.77;4.18;;;;;;;;;;5094649;28;20031;-74
2023/12/22 10:08:03;;;;;;;30.08;3.83;;;;;;;;;;5093303;28;20467;-77
2023/12/22 10:10:30;;;;;;;40.13;6.00;;;;;;;;;;5093392;28;20020;-76
2023/12/22 10:12:56;;;;;;;32.80;4.63;;;;;;;;;;5092910;28;20135;-75
2023/12/22 10:15:26;;;;;;;35.95;4.88;;;;;;;;;;5092787;28;20406;-76
2023/12/22 10:17:53;;;;;;;41.72;5.95;;;;;;;;;;5093635;28;20095;-76
2023/12/22 10:20:19;;;;;;;37.70;4.97;;;;;;;;;;5093904;28;20023;-76
2023/12/22 10:22:46;;;;;;;36.97;5.80;;;;;;;;;;5093360;28;20483;-75
2023/12/22 10:25:15;;;;;;;32.97;5.22;;;;;;;;;;5093541;28;20046;-75
2023/12/22 10:27:42;;;;;;;37.15;5.35;;;;;;;;;;5093273;28;20036;-76
2023/12/22 10:30:10;;;;;;;51.92;5.78;;;;;;;;;;5092796;28;20421;-77
2023/12/22 10:32:41;;;;;;;38.65;5.68;;;;;;;;;;5093442;28;20020;-77
2023/12/22 10:35:08;;;;;;;37.97;4.82;;;;;;;;;;5092160;28;20398;-77
2023/12/22 10:37:34;;;;;;;47.65;7.63;;;;;;;;;;5112862;28;20020;-78
2023/12/22 10:40:00;;;;;;;47.25;7.28;;;;;;;;;;5104905;28;20031;-76
2023/12/22 10:42:26;;;;;;;45.83;5.93;;;;;;;;;;5095603;28;20391;-77
2023/12/22 10:44:53;;;;;;;40.38;5.05;;;;;;;;;;5104325;28;20062;-78
2023/12/22 10:47:21;;;;;;;33.67;4.80;;;;;;;;;;5114349;28;20432;-77
2023/12/22 10:49:47;;;;;;;32.55;4.68;;;;;;;;;;5113160;28;20034;-77
2023/12/22 10:52:23;;;;;;;37.47;4.50;;;;;;;;;;5109769;28;20027;-77
2023/12/22 10:54:49;;;;;;;34.30;4.82;;;;;;;;;;5113414;28;20019;-75
2023/12/22 10:57:19;;;;;;;27.33;3.90;;;;;;;;;;5113161;28;20073;-75
2023/12/22 10:59:46;;;;;;;31.83;4.53;;;;;;;;;;5114181;28;20051;-76
2023/12/22 11:02:17;;;;;;;41.00;5.78;;;;;;;;;;5113808;28;20063;-76
2023/12/22 11:04:48;;;;;;;39.05;4.55;;;;;;;;;;5114391;28;20072;-76
2023/12/22 11:07:14;;;;;;;35.00;4.70;;;;;;;;;;5115006;28;20019;-76
2023/12/22 11:09:44;;;;;;;33.83;6.13;;;;;;;;;;5119382;28;20402;-77
2023/12/22 11:12:10;;;;;;;37.45;5.05;;;;;;;;;;5117701;28;20055;-76
2023/12/22 11:14:37;;;;;;;33.92;4.70;;;;;;;;;;5115335;28;20028;-75
2023/12/22 11:17:05;;;;;;;34.00;4.60;;;;;;;;;;5115108;28;20023;-76
2023/12/22 11:19:31;;;;;;;36.67;5.35;;;;;;;;;;5117806;28;20027;-74
2023/12/22 11:21:59;;;;;;;42.58;6.00;;;;;;;;;;5119387;28;20035;-76
2023/12/22 11:24:25;;;;;;;38.85;4.90;;;;;;;;;;5130609;28;20020;-75
2023/12/22 11:26:52;;;;;;;35.35;4.32;;;;;;;;;;5129046;28;20049;-77
2023/12/22 11:29:19;;;;;;;28.50;3.95;;;;;;;;;;5136666;28;20011;-74
2023/12/22 11:31:46;;;;;;;38.47;3.97;;;;;;;;;;5136088;28;20052;-76
2023/12/22 11:34:12;;;;;;;29.02;3.78;;;;;;;;;;5136746;28;20012;-75
2023/12/22 11:36:39;;;;;;;29.98;4.07;;;;;;;;;;5130309;28;20027;-76
2023/12/22 11:39:04;;;;;;;34.35;4.68;;;;;;;;;;5132435;28;20020;-75
2023/12/22 11:41:33;;;;;;;31.95;4.03;;;;;;;;;;5118410;28;20028;-75
2023/12/22 11:43:59;;;;;;;24.65;4.47;;;;;;;;;;5114578;28;20044;-74
2023/12/22 11:46:25;;;;;;;34.10;6.45;;;;;;;;;;5112966;28;20035;-74
2023/12/22 11:48:51;;;;;;;23.17;3.85;;;;;;;;;;5113395;28;20126;-75
2023/12/22 11:51:18;;;;;;;43.63;8.52;;;;;;;;;;5114179;28;20121;-77
2023/12/22 11:53:44;;;;;;;30.60;4.10;;;;;;;;;;5115492;28;20026;-75
2023/12/22 11:56:11;;;;;;;44.22;6.80;;;;;;;;;;5115987;28;20478;-76
2023/12/22 11:58:38;;;;;;;32.58;4.32;;;;;;;;;;5113045;28;20027;-76
2023/12/22 12:01:06;;;;;;;31.88;5.03;;;;;;;;;;5112965;28;20378;-80
2023/12/22 12:03:32;;;;;;;31.17;4.65;;;;;;;;;;5113550;28;20263;-76
2023/12/22 12:06:30;;;;;;;25.17;4.72;;;;;;;;;;5111508;28;20513;-76
2023/12/22 12:08:57;;;;;;;27.05;4.93;;;;;;;;;;5077304;28;20036;-75
2023/12/22 12:11:23;;;;;;;26.35;4.72;;;;;;;;;;5111684;28;20024;-77
2023/12/22 12:13:50;;;;;;;22.27;4.35;;;;;;;;;;5111490;28;20031;-77
2023/12/22 12:16:19;;;;;;;22.88;3.92;;;;;;;;;;5111713;28;20454;-76
2023/12/22 12:18:45;;;;;;;20.80;4.07;;;;;;;;;;5112373;28;20020;-76
2023/12/22 12:21:12;;;;;;;23.40;4.82;;;;;;;;;;5111907;28;20042;-77
2023/12/22 12:23:41;;;;;;;25.13;3.90;;;;;;;;;;5111880;28;20478;-77
2023/12/22 12:26:07;;;;;;;26.98;4.00;;;;;;;;;;5113158;28;20371;-75
2023/12/22 12:28:35;;;;;;;30.67;4.55;;;;;;;;;;5111358;28;20363;-75
2023/12/22 12:31:03;;;;;;;26.88;4.53;;;;;;;;;;5114696;28;20547;-76
2023/12/22 12:33:30;;;;;;;25.98;4.10;;;;;;;;;;5114888;28;20050;-76
2023/12/22 12:36:00;;;;;;;33.83;4.60;;;;;;;;;;5115116;28;20027;-76
2023/12/22 12:38:44;;;;;;;28.40;4.63;;;;;;;;;;5114996;28;20015;-74
2023/12/22 12:41:13;;;;;;;35.17;5.85;;;;;;;;;;5114972;28;20047;-75
2023/12/22 12:43:43;;;;;;;31.63;5.28;;;;;;;;;;5115179;28;20020;-75
2023/12/22 12:46:10;;;;;;;36.33;4.85;;;;;;;;;;5116269;28;20443;-75
2023/12/22 12:48:36;;;;;;;37.55;5.60;;;;;;;;;;5115756;28;20069;-77
2023/12/22 12:51:04;;;;;;;35.03;5.22;;;;;;;;;;5115033;28;20035;-74
2023/12/22 12:53:31;;;;;;;32.00;4.95;;;;;;;;;;5114830;28;20023;-78
2023/12/22 12:55:57;;;;;;;33.22;4.32;;;;;;;;;;5108494;28;20386;-74
2023/12/22 12:58:28;;;;;;;33.65;4.68;;;;;;;;;;5115745;28;20038;-79
2023/12/22 13:00:57;;;;;;;28.80;4.38;;;;;;;;;;5101478;28;20027;-76
2023/12/22 13:03:23;;;;;;;28.48;4.30;;;;;;;;;;5095206;28;20387;-75
2023/12/22 13:05:49;;;;;;;33.40;5.03;;;;;;;;;;5095021;28;20115;-76
2023/12/22 13:08:15;;;;;;;42.80;4.45;;;;;;;;;;5094892;28;20024;-76
2023/12/22 13:10:41;;;;;;;31.80;4.03;;;;;;;;;;5094364;28;20080;-76
2023/12/22 13:13:07;;;;;;;37.67;5.03;;;;;;;;;;5094972;28;20024;-75
2023/12/22 13:15:34;;;;;;;38.15;6.45;;;;;;;;;;5093806;28;20024;-75
2023/12/22 13:18:00;;;;;;;47.33;6.68;;;;;;;;;;5094445;28;20012;-76
2023/12/22 13:20:26;;;;;;;46.40;6.25;;;;;;;;;;5093948;28;20020;-76
2023/12/22 13:22:52;;;;;;;34.70;4.45;;;;;;;;;;5094825;28;20024;-77
2023/12/22 13:25:18;;;;;;;38.20;4.68;;;;;;;;;;5093672;28;20073;-75
2023/12/22 13:27:53;;;;;;;27.70;5.65;;;;;;;;;;5093249;28;20060;-75
2023/12/22 13:30:36;;;;;;;37.65;5.65;;;;;;;;;;5093335;28;20028;-76
2023/12/22 13:33:02;;;;;;;47.38;7.18;;;;;;;;;;5093420;28;20032;-78
2023/12/22 13:35:29;;;;;;;35.05;5.05;;;;;;;;;;5093722;28;20032;-75
2023/12/22 13:37:55;;;;;;;32.75;4.63;;;;;;;;;;5102264;28;20031;-75
2023/12/22 13:40:21;;;;;;;30.60;4.25;;;;;;;;;;5110965;28;20035;-75
2023/12/22 13:42:57;;;;;;;32.40;5.38;;;;;;;;;;5095593;28;20062;-75
2023/12/22 13:45:23;;;;;;;37.55;4.10;;;;;;;;;;5098076;28;20031;-75
2023/12/22 13:47:49;;;;;;;44.10;5.68;;;;;;;;;;5110137;28;20046;-74
2023/12/22 13:50:16;;;;;;;26.13;4.68;;;;;;;;;;5110794;28;20050;-75
2023/12/22 13:52:43;;;;;;;39.75;6.15;;;;;;;;;;5107840;28;20103;-75
2023/12/22 13:55:16;;;;;;;48.95;5.80;;;;;;;;;;5105897;28;20071;-75
2023/12/22 13:57:42;;;;;;;36.78;4.90;;;;;;;;;;5112916;28;20039;-77
2023/12/22 14:00:09;;;;;;;34.08;4.63;;;;;;;;;;5105032;28;20039;-78
2023/12/22 14:02:36;;;;;;;38.17;5.05;;;;;;;;;;5096366;28;20467;-79
2023/12/22 14:05:02;;;;;;;31.30;4.55;;;;;;;;;;5101028;28;20494;-76
2023/12/22 14:07:28;;;;;;;33.60;4.57;;;;;;;;;;5112697;28;20012;-76
2023/12/22 14:09:54;;;;;;;46.38;6.53;;;;;;;;;;5112894;28;20440;-77
2023/12/22 14:12:19;;;;;;;37.17;4.68;;;;;;;;;;5101893;28;20024;-78
2023/12/22 14:14:45;;;;;;;37.28;5.65;;;;;;;;;;5105184;28;20534;-78
2023/12/22 14:17:11;;;;;;;42.15;5.28;;;;;;;;;;5113735;28;20054;-76
2023/12/22 14:19:37;;;;;;;28.52;4.47;;;;;;;;;;5110688;28;20085;-76
2023/12/22 14:22:03;;;;;;;33.38;5.60;;;;;;;;;;5108728;28;20104;-75
2023/12/22 14:24:30;;;;;;;35.92;4.95;;;;;;;;;;5099591;28;20564;-74
2023/12/22 14:26:56;;;;;;;30.90;4.45;;;;;;;;;;5100851;28;20022;-75
2023/12/22 14:29:22;;;;;;;18.23;3.00;;;;;;;;;;5103243;28;20093;-75